マナグア の空港の天気 - METARとTAF

マナグア国際空港 ( MNMG / MGA ) - ニカラグア マナグア県マナグア
飛行場実況気象(Metar)
観測時間12/03 07:00 CST (12/03 13:00 UTC)
風向・風速南南東 2m/s
視程10km以上
天気現象
少しの雲 雲底高度 700m
気温25℃
湿度89%
気圧1010hPa
METARMNMG 031300Z 16004KT 9999 FEW023 25/23 Q1010 A2985 NOSIG
過去の天気等 Google飛行場航空写真 Wunderground天気予報

過去48時間のMETAR

飛行場予報(TAF)
発表時間: 12/03 04:08 CST (12/03 10:08 UTC)
予報対象時間: 3日6時 CST ~ 4日6時 CST
風向・風速南東 2m/s
視程10km以上
少しの雲 雲底高度 670m
全天の4割程度の雲 雲底高度 2130m
3日8時 CST ~ 3日10時 CST に徐々に
風向・風速東 7m/s
全天の4割程度の雲 雲底高度 670m
3日12時 CST ~ 3日17時 CST に一時的に
全天の8割程度の雲 雲底高度 670m
MNMG 031008Z 0312/0412 14004KT 9999 FEW022 SCT070
BECMG 0314/0316 08014KT SCT022
TEMPO 0318/0323 BKN022